Time;durP1;ratioP1;P1;durP2;ratioP2;P2;SDS_P1;SDS_P2;PMS_P1;PMS_P2;Temp;Humidity;BMP_temperature;BMP_pressure;BME280_temperature;BME280_humidity;BME280_pressure;Samples;Min_cycle;Max_cycle;Signal;HPM_P1;HPM_P2
2022/04/15 00:02:19;;;;;;;23.27;14.02;;;;;;;;;;4975045;28;20034;-70
2022/04/15 00:04:44;;;;;;;25.30;12.75;;;;;;;;;;4975080;28;20090;-70
2022/04/15 00:07:10;;;;;;;22.13;13.05;;;;;;;;;;4957795;28;20061;-70
2022/04/15 00:09:36;;;;;;;19.42;12.38;;;;;;;;;;4961728;28;20027;-70
2022/04/15 00:12:07;;;;;;;20.95;12.60;;;;;;;;;;4978748;28;20081;-70
2022/04/15 00:14:33;;;;;;;23.42;13.40;;;;;;;;;;4978906;28;20041;-71
2022/04/15 00:16:58;;;;;;;29.92;16.88;;;;;;;;;;4978719;28;20030;-71
2022/04/15 00:19:23;;;;;;;35.28;20.02;;;;;;;;;;4961592;28;20039;-71
2022/04/15 00:21:49;;;;;;;38.45;20.20;;;;;;;;;;4978909;28;20071;-71
2022/04/15 00:24:14;;;;;;;42.55;22.23;;;;;;;;;;4978521;28;20455;-70
2022/04/15 00:26:40;;;;;;;44.00;22.17;;;;;;;;;;4978615;28;20030;-73
2022/04/15 00:29:06;;;;;;;40.40;21.55;;;;;;;;;;4960928;28;20030;-75
2022/04/15 00:31:31;;;;;;;40.83;21.55;;;;;;;;;;4978468;28;20140;-74
2022/04/15 00:33:57;;;;;;;46.85;22.77;;;;;;;;;;4978149;28;20403;-73
2022/04/15 00:36:22;;;;;;;52.95;24.48;;;;;;;;;;4978284;28;20375;-70
2022/04/15 00:38:49;;;;;;;47.95;20.90;;;;;;;;;;4961203;28;20110;-72
2022/04/15 00:41:15;;;;;;;42.90;21.38;;;;;;;;;;4977970;28;20501;-72
2022/04/15 00:43:41;;;;;;;50.33;22.25;;;;;;;;;;4960917;28;20122;-70
2022/04/15 00:46:09;;;;;;;52.85;22.88;;;;;;;;;;4978269;28;20102;-70
2022/04/15 00:48:36;;;;;;;58.13;24.20;;;;;;;;;;4978185;28;20031;-70
2022/04/15 00:51:02;;;;;;;53.35;24.30;;;;;;;;;;4978158;28;20106;-70
2022/04/15 00:53:28;;;;;;;60.35;24.27;;;;;;;;;;4961029;28;20022;-70
2022/04/15 00:55:57;;;;;;;33.72;18.38;;;;;;;;;;4977846;28;20023;-71
2022/04/15 00:58:24;;;;;;;31.52;16.15;;;;;;;;;;4960078;28;20390;-71
2022/04/15 01:00:51;;;;;;;24.95;14.68;;;;;;;;;;4977845;28;20048;-73
2022/04/15 01:03:18;;;;;;;27.45;14.90;;;;;;;;;;4978050;28;20035;-70
2022/04/15 01:05:44;;;;;;;90.15;35.28;;;;;;;;;;4977558;28;20363;-70
2022/04/15 01:08:10;;;;;;;146.85;55.47;;;;;;;;;;4977749;28;20038;-72
2022/04/15 01:10:36;;;;;;;153.13;57.97;;;;;;;;;;4960381;28;20447;-72
2022/04/15 01:13:04;;;;;;;148.35;56.40;;;;;;;;;;4977504;28;20034;-73
2022/04/15 01:15:36;;;;;;;117.53;43.80;;;;;;;;;;4977800;28;20054;-73
2022/04/15 01:18:01;;;;;;;111.30;43.35;;;;;;;;;;4977462;28;20496;-71
2022/04/15 01:20:27;;;;;;;75.78;30.05;;;;;;;;;;4976282;28;20098;-71
2022/04/15 01:23:04;;;;;;;49.75;21.92;;;;;;;;;;4977535;28;20098;-71
2022/04/15 01:25:29;;;;;;;40.08;17.80;;;;;;;;;;4960112;28;20589;-75
2022/04/15 01:27:57;;;;;;;25.30;13.82;;;;;;;;;;4977055;28;20118;-74
2022/04/15 01:30:29;;;;;;;21.77;13.68;;;;;;;;;;4977214;28;20030;-75
2022/04/15 01:32:54;;;;;;;19.83;12.35;;;;;;;;;;4977381;28;20030;-74
2022/04/15 01:35:20;;;;;;;17.13;11.65;;;;;;;;;;4977259;28;20378;-71
2022/04/15 01:37:46;;;;;;;18.55;11.80;;;;;;;;;;4977199;28;20078;-71
2022/04/15 01:40:12;;;;;;;22.40;12.48;;;;;;;;;;4976738;28;20022;-70
2022/04/15 01:42:39;;;;;;;25.50;13.52;;;;;;;;;;4977189;28;20415;-70
2022/04/15 01:45:04;;;;;;;26.75;14.85;;;;;;;;;;4977072;28;20030;-71
2022/04/15 01:47:30;;;;;;;42.00;20.50;;;;;;;;;;4976938;28;20470;-74
2022/04/15 01:49:55;;;;;;;40.65;22.17;;;;;;;;;;4977229;28;20018;-71
2022/04/15 01:52:21;;;;;;;41.97;21.77;;;;;;;;;;4977089;28;20362;-71
2022/04/15 01:54:46;;;;;;;41.80;22.02;;;;;;;;;;4959720;28;20026;-71
2022/04/15 01:57:12;;;;;;;34.28;19.15;;;;;;;;;;4976938;28;20031;-74
2022/04/15 01:59:38;;;;;;;30.88;17.40;;;;;;;;;;4976797;28;20409;-71
2022/04/15 02:02:04;;;;;;;33.03;17.05;;;;;;;;;;4976886;28;20061;-70
2022/04/15 02:04:29;;;;;;;26.45;15.88;;;;;;;;;;4976474;28;20058;-70
2022/04/15 02:06:55;;;;;;;27.52;15.65;;;;;;;;;;4976594;28;20030;-70
2022/04/15 02:09:20;;;;;;;27.20;15.32;;;;;;;;;;4976412;28;20022;-70
2022/04/15 02:11:46;;;;;;;33.03;18.15;;;;;;;;;;4959067;28;20026;-74
2022/04/15 02:14:14;;;;;;;33.15;17.40;;;;;;;;;;4976411;28;20101;-74
2022/04/15 02:16:40;;;;;;;33.30;16.70;;;;;;;;;;4976471;28;20095;-73
2022/04/15 02:19:06;;;;;;;26.83;15.88;;;;;;;;;;4976489;28;20154;-73
2022/04/15 02:21:31;;;;;;;25.42;14.48;;;;;;;;;;4976461;28;20026;-73
2022/04/15 02:23:57;;;;;;;24.60;14.07;;;;;;;;;;4959307;28;20033;-73
2022/04/15 02:26:23;;;;;;;25.73;14.68;;;;;;;;;;4976329;28;20045;-70
2022/04/15 02:28:48;;;;;;;29.77;16.50;;;;;;;;;;4976243;28;20029;-70
2022/04/15 02:31:13;;;;;;;35.60;18.23;;;;;;;;;;4976071;28;20066;-70
2022/04/15 02:33:39;;;;;;;33.00;18.15;;;;;;;;;;4976265;28;20019;-70
2022/04/15 02:36:05;;;;;;;30.50;18.02;;;;;;;;;;4976315;28;20475;-70
2022/04/15 02:38:30;;;;;;;33.92;18.05;;;;;;;;;;4975939;28;20015;-70
2022/04/15 02:40:56;;;;;;;30.13;17.90;;;;;;;;;;4976037;28;20062;-70
2022/04/15 02:43:25;;;;;;;29.30;17.38;;;;;;;;;;4976129;28;20021;-70
2022/04/15 02:45:50;;;;;;;30.65;17.50;;;;;;;;;;4958647;28;20458;-70
2022/04/15 02:48:16;;;;;;;25.88;15.05;;;;;;;;;;4975963;28;20035;-70
2022/04/15 02:50:41;;;;;;;23.13;14.57;;;;;;;;;;4975950;28;20035;-70
2022/04/15 02:53:06;;;;;;;25.63;14.25;;;;;;;;;;4976009;28;20023;-70
2022/04/15 02:55:32;;;;;;;24.52;14.55;;;;;;;;;;4976120;28;20118;-70
2022/04/15 02:57:57;;;;;;;25.15;15.43;;;;;;;;;;4958332;28;20027;-70
2022/04/15 03:00:23;;;;;;;28.33;15.52;;;;;;;;;;4975789;28;20038;-70
2022/04/15 03:02:48;;;;;;;30.02;15.95;;;;;;;;;;4975494;28;20117;-70
2022/04/15 03:05:14;;;;;;;27.30;16.13;;;;;;;;;;4958051;28;20027;-70
2022/04/15 03:07:40;;;;;;;27.17;16.02;;;;;;;;;;4975775;28;20023;-70
2022/04/15 03:10:06;;;;;;;26.98;15.80;;;;;;;;;;4958291;28;20042;-70
2022/04/15 03:12:35;;;;;;;29.92;17.58;;;;;;;;;;4975699;28;20374;-70
2022/04/15 03:15:00;;;;;;;26.55;16.30;;;;;;;;;;4975512;28;20066;-70
2022/04/15 03:17:26;;;;;;;25.33;15.52;;;;;;;;;;4975639;28;20065;-70
2022/04/15 03:19:51;;;;;;;27.83;16.02;;;;;;;;;;4975069;28;20070;-70
2022/04/15 03:22:17;;;;;;;33.80;18.20;;;;;;;;;;4957809;28;20058;-70
2022/04/15 03:24:43;;;;;;;42.65;23.77;;;;;;;;;;4974985;28;20039;-70
2022/04/15 03:27:08;;;;;;;39.33;23.77;;;;;;;;;;4975075;28;20030;-70
2022/04/15 03:29:33;;;;;;;43.47;25.90;;;;;;;;;;4974869;28;20352;-70
2022/04/15 03:31:59;;;;;;;44.65;26.92;;;;;;;;;;4957596;28;20022;-74
2022/04/15 03:34:24;;;;;;;33.45;20.70;;;;;;;;;;4975137;28;20031;-74
2022/04/15 03:36:49;;;;;;;27.50;18.27;;;;;;;;;;4974830;28;20081;-73
2022/04/15 03:39:16;;;;;;;35.30;22.20;;;;;;;;;;4974929;28;20039;-74
2022/04/15 03:41:42;;;;;;;33.42;19.40;;;;;;;;;;4974379;28;20070;-74
2022/04/15 03:44:07;;;;;;;28.85;16.92;;;;;;;;;;4974762;28;20470;-74
2022/04/15 03:46:40;;;;;;;27.98;16.08;;;;;;;;;;4975048;28;20031;-74
2022/04/15 03:49:05;;;;;;;24.98;15.95;;;;;;;;;;4975138;28;20035;-74
2022/04/15 03:51:31;;;;;;;24.23;15.27;;;;;;;;;;4974991;28;20022;-73
2022/04/15 03:53:57;;;;;;;22.23;13.93;;;;;;;;;;4974901;28;20027;-74
2022/04/15 03:56:22;;;;;;;17.88;12.52;;;;;;;;;;4975298;28;20026;-74
2022/04/15 03:58:48;;;;;;;16.05;11.63;;;;;;;;;;4973976;28;20093;-70
2022/04/15 04:01:13;;;;;;;17.92;11.05;;;;;;;;;;4974218;28;20018;-69
2022/04/15 04:03:40;;;;;;;15.20;10.25;;;;;;;;;;4974237;28;20035;-71
2022/04/15 04:06:05;;;;;;;15.40;10.23;;;;;;;;;;4974265;28;20085;-72
2022/04/15 04:08:33;;;;;;;14.45;10.27;;;;;;;;;;4974386;28;20059;-76
2022/04/15 04:10:58;;;;;;;12.07;9.25;;;;;;;;;;4974286;28;20023;-70
2022/04/15 04:13:24;;;;;;;10.77;8.40;;;;;;;;;;4973918;28;20033;-69
2022/04/15 04:15:49;;;;;;;9.40;7.53;;;;;;;;;;4974148;28;20030;-71
2022/04/15 04:18:17;;;;;;;10.55;7.65;;;;;;;;;;4974207;28;20042;-71
2022/04/15 04:20:43;;;;;;;8.30;6.80;;;;;;;;;;4974309;28;20019;-71
2022/04/15 04:23:09;;;;;;;8.52;7.00;;;;;;;;;;4956986;28;20378;-70
2022/04/15 04:25:34;;;;;;;7.47;6.75;;;;;;;;;;4956898;28;20077;-70
2022/04/15 04:27:59;;;;;;;7.05;5.57;;;;;;;;;;4973309;28;20442;-70
2022/04/15 04:30:25;;;;;;;8.15;5.47;;;;;;;;;;4974005;28;20018;-70
2022/04/15 04:32:50;;;;;;;9.35;5.55;;;;;;;;;;4973700;28;20041;-71
2022/04/15 04:35:17;;;;;;;7.80;5.40;;;;;;;;;;4973300;28;20023;-71
2022/04/15 04:37:43;;;;;;;5.35;4.78;;;;;;;;;;4973220;28;20043;-70
2022/04/15 04:40:08;;;;;;;4.78;4.40;;;;;;;;;;4955801;28;20034;-70
2022/04/15 04:42:34;;;;;;;6.05;4.28;;;;;;;;;;4973329;28;20042;-70
2022/04/15 04:44:59;;;;;;;7.47;4.28;;;;;;;;;;4973221;28;20077;-70
2022/04/15 04:47:25;;;;;;;4.93;4.43;;;;;;;;;;4973063;28;20402;-70
2022/04/15 04:49:50;;;;;;;4.97;4.57;;;;;;;;;;4973181;28;20382;-71
2022/04/15 04:52:15;;;;;;;5.97;4.70;;;;;;;;;;4973112;28;20022;-71
2022/04/15 04:54:40;;;;;;;5.18;4.30;;;;;;;;;;4956907;28;20011;-71
2022/04/15 04:57:06;;;;;;;5.30;4.35;;;;;;;;;;4977298;28;20031;-71
2022/04/15 04:59:32;;;;;;;4.45;4.05;;;;;;;;;;4977489;28;20031;-71
2022/04/15 05:01:58;;;;;;;4.88;4.25;;;;;;;;;;4977430;28;20070;-71
2022/04/15 05:04:24;;;;;;;4.57;4.15;;;;;;;;;;4977490;28;20062;-71
2022/04/15 05:06:51;;;;;;;4.63;4.25;;;;;;;;;;4977324;28;20035;-71
2022/04/15 05:09:17;;;;;;;4.53;4.07;;;;;;;;;;4977349;28;20019;-71
2022/04/15 05:11:42;;;;;;;4.53;4.13;;;;;;;;;;4977317;28;20381;-71
2022/04/15 05:14:07;;;;;;;4.72;4.30;;;;;;;;;;4977202;28;20038;-71
2022/04/15 05:16:33;;;;;;;4.40;3.95;;;;;;;;;;4977371;28;20031;-71
2022/04/15 05:18:58;;;;;;;5.20;4.70;;;;;;;;;;4977121;28;20074;-71
2022/04/15 05:21:24;;;;;;;5.03;4.43;;;;;;;;;;4977224;28;20073;-71
2022/04/15 05:23:49;;;;;;;6.57;4.82;;;;;;;;;;4977266;28;20150;-71
2022/04/15 05:26:15;;;;;;;5.47;4.97;;;;;;;;;;4976926;28;20500;-71
2022/04/15 05:28:41;;;;;;;6.38;4.97;;;;;;;;;;4976983;28;20019;-71
2022/04/15 05:31:07;;;;;;;5.32;4.82;;;;;;;;;;4976909;28;20541;-71
2022/04/15 05:33:32;;;;;;;6.78;5.30;;;;;;;;;;4976890;28;20055;-71
2022/04/15 05:35:58;;;;;;;8.63;6.35;;;;;;;;;;4976845;28;20513;-71
2022/04/15 05:38:23;;;;;;;8.45;7.13;;;;;;;;;;4976956;28;20029;-71
2022/04/15 05:40:48;;;;;;;7.43;5.90;;;;;;;;;;4976633;28;20122;-70
2022/04/15 05:43:15;;;;;;;5.07;4.57;;;;;;;;;;4976744;28;20027;-70
2022/04/15 05:45:40;;;;;;;6.50;5.47;;;;;;;;;;4976711;28;20113;-69
2022/04/15 05:48:06;;;;;;;8.57;5.87;;;;;;;;;;4959216;28;20470;-69
2022/04/15 05:50:31;;;;;;;8.75;6.43;;;;;;;;;;4959407;28;20784;-69
2022/04/15 05:52:57;;;;;;;6.63;5.65;;;;;;;;;;4976914;28;20061;-69
2022/04/15 05:55:22;;;;;;;5.45;4.85;;;;;;;;;;4959279;28;20031;-69
2022/04/15 05:57:49;;;;;;;5.22;4.72;;;;;;;;;;4976436;28;20035;-69
2022/04/15 06:00:14;;;;;;;6.22;5.57;;;;;;;;;;4976369;28;20109;-69
2022/04/15 06:02:40;;;;;;;7.60;5.68;;;;;;;;;;4976032;28;20102;-69
2022/04/15 06:05:06;;;;;;;7.35;6.15;;;;;;;;;;4975856;28;20046;-69
2022/04/15 06:07:31;;;;;;;6.93;6.10;;;;;;;;;;4976262;28;20022;-69
2022/04/15 06:09:58;;;;;;;9.50;6.57;;;;;;;;;;4976213;28;20109;-69
2022/04/15 06:12:54;;;;;;;8.05;6.78;;;;;;;;;;4976133;28;20073;-69
2022/04/15 06:15:16;;;;;;;7.40;5.15;;;;;;;;;;4958690;28;20189;-69
2022/04/15 06:17:42;;;;;;;6.10;5.45;;;;;;;;;;4975674;28;20097;-70
2022/04/15 06:20:08;;;;;;;5.68;5.18;;;;;;;;;;4975948;28;20031;-69
2022/04/15 06:22:33;;;;;;;6.70;6.00;;;;;;;;;;4958956;28;20038;-69
2022/04/15 06:24:58;;;;;;;5.78;5.28;;;;;;;;;;4975853;28;20038;-69
2022/04/15 06:27:24;;;;;;;6.70;6.00;;;;;;;;;;4976227;28;20033;-70
2022/04/15 06:29:49;;;;;;;9.02;6.88;;;;;;;;;;4958950;28;20027;-69
2022/04/15 06:32:14;;;;;;;11.45;8.63;;;;;;;;;;4975901;28;20406;-70
2022/04/15 06:34:40;;;;;;;11.85;10.15;;;;;;;;;;4975709;28;20034;-70
2022/04/15 06:37:05;;;;;;;11.35;9.45;;;;;;;;;;4975726;28;20026;-69
2022/04/15 06:39:31;;;;;;;12.23;9.23;;;;;;;;;;4975650;28;20035;-70
2022/04/15 06:41:56;;;;;;;10.68;8.25;;;;;;;;;;4975531;28;20093;-70
2022/04/15 06:44:21;;;;;;;9.80;8.25;;;;;;;;;;4975613;28;20147;-69
2022/04/15 06:46:46;;;;;;;8.27;7.18;;;;;;;;;;4975571;28;20030;-70
2022/04/15 06:49:12;;;;;;;11.18;8.18;;;;;;;;;;4975446;28;20126;-70
2022/04/15 06:51:37;;;;;;;10.60;8.57;;;;;;;;;;4975544;28;20023;-70
2022/04/15 06:54:02;;;;;;;12.60;8.77;;;;;;;;;;4942131;28;20069;-69
2022/04/15 06:56:28;;;;;;;11.57;8.90;;;;;;;;;;4975430;28;20030;-70
2022/04/15 06:58:53;;;;;;;11.25;8.88;;;;;;;;;;4975332;28;20038;-70
2022/04/15 07:01:19;;;;;;;11.95;9.07;;;;;;;;;;4975380;28;20023;-69
2022/04/15 07:03:44;;;;;;;11.90;9.18;;;;;;;;;;4975268;28;20030;-70
2022/04/15 07:06:09;;;;;;;11.02;8.35;;;;;;;;;;4975231;28;20018;-69
2022/04/15 07:08:35;;;;;;;9.77;8.77;;;;;;;;;;4975146;28;20023;-70
2022/04/15 07:11:00;;;;;;;11.90;9.30;;;;;;;;;;4975348;28;20466;-70
2022/04/15 07:13:26;;;;;;;10.63;9.10;;;;;;;;;;4974859;28;20062;-69
2022/04/15 07:15:51;;;;;;;12.40;10.27;;;;;;;;;;4975379;28;20018;-70
2022/04/15 07:18:16;;;;;;;13.15;10.43;;;;;;;;;;4957442;28;20081;-69
2022/04/15 07:20:42;;;;;;;12.43;9.68;;;;;;;;;;4975076;28;20077;-70
2022/04/15 07:23:07;;;;;;;12.80;10.18;;;;;;;;;;4975304;28;20073;-70
2022/04/15 07:25:34;;;;;;;12.32;10.38;;;;;;;;;;4957692;28;20033;-70
2022/04/15 07:28:00;;;;;;;13.70;11.07;;;;;;;;;;4974932;28;20042;-69
2022/04/15 07:30:27;;;;;;;14.05;11.00;;;;;;;;;;4975228;28;20022;-69
2022/04/15 07:32:52;;;;;;;14.40;11.18;;;;;;;;;;4975445;28;20109;-69
2022/04/15 07:35:20;;;;;;;16.05;11.98;;;;;;;;;;4957638;28;20106;-69
2022/04/15 07:37:45;;;;;;;14.32;11.27;;;;;;;;;;4975096;28;20031;-69
2022/04/15 07:40:11;;;;;;;15.30;12.32;;;;;;;;;;4974672;28;20022;-69
2022/04/15 07:42:36;;;;;;;16.63;13.15;;;;;;;;;;4957539;28;20035;-69
2022/04/15 07:45:02;;;;;;;15.68;12.80;;;;;;;;;;4975057;28;20031;-69
2022/04/15 07:47:27;;;;;;;16.67;12.88;;;;;;;;;;4974711;28;20066;-70
2022/04/15 07:49:53;;;;;;;14.27;9.82;;;;;;;;;;4975015;28;20034;-69
2022/04/15 07:52:18;;;;;;;13.68;10.93;;;;;;;;;;4974729;28;20035;-69
2022/04/15 07:54:43;;;;;;;17.77;11.67;;;;;;;;;;4974584;28;20027;-69
2022/04/15 07:57:09;;;;;;;17.95;13.30;;;;;;;;;;4974712;28;20270;-70
2022/04/15 07:59:34;;;;;;;14.73;11.73;;;;;;;;;;4974409;28;20443;-67
2022/04/15 08:02:00;;;;;;;13.75;9.77;;;;;;;;;;4974528;28;20034;-70
2022/04/15 08:04:26;;;;;;;15.52;10.82;;;;;;;;;;4974493;28;20492;-68
2022/04/15 08:06:52;;;;;;;13.27;10.57;;;;;;;;;;4974560;28;20035;-71
2022/04/15 08:09:17;;;;;;;13.32;10.52;;;;;;;;;;4957105;28;20474;-71
2022/04/15 08:11:49;;;;;;;16.65;13.07;;;;;;;;;;4974533;28;20031;-71
2022/04/15 08:14:14;;;;;;;17.20;13.07;;;;;;;;;;4974262;28;20077;-74
2022/04/15 08:16:40;;;;;;;12.38;9.57;;;;;;;;;;4957066;28;20022;-74
2022/04/15 08:19:05;;;;;;;13.02;10.63;;;;;;;;;;4974110;28;20030;-75
2022/04/15 08:21:36;;;;;;;12.20;9.88;;;;;;;;;;4974764;28;20026;-74
2022/04/15 08:24:02;;;;;;;14.45;11.90;;;;;;;;;;4974755;28;20030;-74
2022/04/15 08:26:29;;;;;;;14.05;11.55;;;;;;;;;;4974547;28;20018;-74
2022/04/15 08:28:54;;;;;;;12.57;10.35;;;;;;;;;;4976142;28;20066;-74
2022/04/15 08:31:21;;;;;;;12.43;10.68;;;;;;;;;;4978139;28;20057;-74
2022/04/15 08:33:47;;;;;;;12.27;10.48;;;;;;;;;;4961028;28;20045;-74
2022/04/15 08:36:12;;;;;;;14.07;11.63;;;;;;;;;;4977250;28;20481;-73
2022/04/15 08:38:38;;;;;;;11.95;10.07;;;;;;;;;;4976881;28;20478;-73
2022/04/15 08:41:04;;;;;;;12.77;9.80;;;;;;;;;;4959296;28;20055;-73
2022/04/15 08:43:30;;;;;;;9.55;8.60;;;;;;;;;;4977109;28;20019;-73
2022/04/15 08:45:56;;;;;;;11.38;9.27;;;;;;;;;;4976827;28;20037;-74
2022/04/15 08:48:23;;;;;;;10.65;9.57;;;;;;;;;;4976539;28;20497;-74
2022/04/15 08:50:50;;;;;;;10.23;8.80;;;;;;;;;;4977069;28;20459;-74
2022/04/15 08:53:16;;;;;;;9.98;7.78;;;;;;;;;;4976616;28;20478;-74
2022/04/15 08:55:41;;;;;;;7.63;6.82;;;;;;;;;;4943324;28;20029;-74
2022/04/15 08:58:06;;;;;;;6.63;6.03;;;;;;;;;;4976796;28;20034;-74
2022/04/15 09:00:32;;;;;;;5.00;4.60;;;;;;;;;;4976532;28;20078;-73
2022/04/15 09:02:57;;;;;;;4.10;3.70;;;;;;;;;;4976511;28;20470;-73
2022/04/15 09:05:23;;;;;;;4.38;3.92;;;;;;;;;;4976423;28;20046;-73
2022/04/15 09:07:49;;;;;;;15.18;6.85;;;;;;;;;;4976277;28;20043;-73
2022/04/15 09:10:16;;;;;;;3.97;3.28;;;;;;;;;;4976347;28;20034;-73
2022/04/15 09:12:41;;;;;;;3.08;2.78;;;;;;;;;;4976283;28;20500;-73
2022/04/15 09:15:06;;;;;;;13.32;6.32;;;;;;;;;;4976312;28;20030;-73
2022/04/15 09:17:35;;;;;;;6.05;3.60;;;;;;;;;;4958774;28;20110;-73
2022/04/15 09:20:01;;;;;;;318.17;93.15;;;;;;;;;;4976085;28;20493;-73
2022/04/15 09:22:27;;;;;;;254.23;76.78;;;;;;;;;;4958798;28;20058;-72
2022/04/15 09:24:52;;;;;;;15.05;7.43;;;;;;;;;;4976127;28;20496;-73
2022/04/15 09:27:23;;;;;;;10.50;5.82;;;;;;;;;;4976325;28;20034;-73
2022/04/15 09:29:50;;;;;;;2.13;2.00;;;;;;;;;;4975988;28;20486;-73
2022/04/15 09:32:15;;;;;;;1.73;1.40;;;;;;;;;;4975937;28;20101;-73
2022/04/15 09:34:57;;;;;;;3.60;2.60;;;;;;;;;;4975917;28;20075;-73
2022/04/15 09:37:24;;;;;;;2.20;1.98;;;;;;;;;;4958578;28;20039;-73
2022/04/15 09:40:07;;;;;;;10.25;5.40;;;;;;;;;;4975131;28;20041;-73
2022/04/15 09:42:36;;;;;;;1.38;1.30;;;;;;;;;;4937264;29;20082;-74
2022/04/15 09:45:11;;;;;;;1.50;1.40;;;;;;;;;;4937248;29;20035;-74
2022/04/15 09:47:37;;;;;;;9.00;5.72;;;;;;;;;;4937147;29;20036;-74
2022/04/15 09:50:03;;;;;;;1.48;1.38;;;;;;;;;;4935894;29;20023;-74
2022/04/15 09:52:28;;;;;;;42.17;25.05;;;;;;;;;;4937075;29;20031;-74
2022/04/15 09:54:56;;;;;;;2.90;2.50;;;;;;;;;;4937096;29;20023;-74
2022/04/15 09:57:23;;;;;;;45.05;31.83;;;;;;;;;;4937020;29;20044;-74
2022/04/15 09:59:49;;;;;;;104.47;81.15;;;;;;;;;;4935685;29;20038;-73
2022/04/15 10:02:14;;;;;;;5.10;4.60;;;;;;;;;;4935770;29;20035;-74
2022/04/15 10:04:40;;;;;;;4.05;3.75;;;;;;;;;;4935718;29;20016;-74
2022/04/15 10:07:08;;;;;;;2.83;2.63;;;;;;;;;;4935547;29;20036;-74
2022/04/15 10:09:38;;;;;;;4.25;3.85;;;;;;;;;;4936815;29;20017;-74
2022/04/15 10:12:05;;;;;;;1.90;1.27;;;;;;;;;;4936789;29;20068;-76
2022/04/15 10:14:30;;;;;;;1.50;1.40;;;;;;;;;;4937227;29;20030;-76
2022/04/15 10:16:57;;;;;;;1.50;1.40;;;;;;;;;;4937263;29;20028;-76
2022/04/15 10:19:24;;;;;;;5.45;5.05;;;;;;;;;;4936705;29;20075;-76
2022/04/15 10:21:50;;;;;;;1.58;1.33;;;;;;;;;;4936572;29;20035;-76
2022/04/15 10:24:16;;;;;;;1.60;1.50;;;;;;;;;;4935973;29;20028;-76
2022/04/15 10:26:43;;;;;;;1.50;1.40;;;;;;;;;;4937719;29;20051;-76
2022/04/15 10:29:10;;;;;;;1.88;1.20;;;;;;;;;;4937573;29;20028;-76
2022/04/15 10:31:37;;;;;;;3.10;2.92;;;;;;;;;;4936525;29;20031;-76
2022/04/15 10:34:09;;;;;;;2.20;2.10;;;;;;;;;;4936051;29;20388;-76
2022/04/15 10:36:35;;;;;;;2.50;1.83;;;;;;;;;;4937295;29;20027;-76
2022/04/15 10:39:03;;;;;;;1.48;1.38;;;;;;;;;;4936998;29;20079;-76
2022/04/15 10:41:29;;;;;;;1.83;1.20;;;;;;;;;;4958531;28;20046;-77
2022/04/15 10:43:58;;;;;;;1.58;1.48;;;;;;;;;;4940468;28;20030;-77
2022/04/15 10:46:35;;;;;;;1.52;1.42;;;;;;;;;;4956309;28;20014;-76
2022/04/15 10:49:01;;;;;;;1.70;1.60;;;;;;;;;;4974106;28;20148;-76
2022/04/15 10:51:27;;;;;;;1.70;1.50;;;;;;;;;;4974090;28;20027;-76
2022/04/15 10:53:53;;;;;;;1.45;1.35;;;;;;;;;;4956585;28;20470;-76
2022/04/15 10:56:20;;;;;;;1.40;1.30;;;;;;;;;;4975430;28;20106;-76
2022/04/15 11:01:53;;;;;;;1.67;1.50;;;;;;;;;;4975315;28;20023;-76
2022/04/15 11:04:25;;;;;;;3.25;1.80;;;;;;;;;;4975588;28;20078;-76
2022/04/15 11:06:51;;;;;;;2.08;1.52;;;;;;;;;;4975156;28;20031;-76
2022/04/15 11:09:20;;;;;;;1.80;1.70;;;;;;;;;;4975536;28;20045;-76
2022/04/15 11:11:50;;;;;;;1.92;1.83;;;;;;;;;;4975488;28;20094;-76
2022/04/15 11:14:16;;;;;;;2.10;1.93;;;;;;;;;;4975238;28;20132;-76
2022/04/15 11:16:48;;;;;;;2.00;1.90;;;;;;;;;;4957780;28;20421;-76
2022/04/15 11:19:32;;;;;;;1.85;1.75;;;;;;;;;;4957876;28;20370;-77
2022/04/15 11:22:00;;;;;;;1.63;1.52;;;;;;;;;;4975028;28;20035;-76
2022/04/15 11:24:30;;;;;;;2.60;1.75;;;;;;;;;;4975296;28;20077;-76
2022/04/15 11:27:05;;;;;;;3.03;1.52;;;;;;;;;;4974915;28;20038;-76
2022/04/15 11:29:32;;;;;;;2.17;1.98;;;;;;;;;;4975244;28;20117;-76
2022/04/15 11:31:58;;;;;;;1.92;1.70;;;;;;;;;;4975490;28;20023;-76
2022/04/15 11:34:24;;;;;;;1.70;1.60;;;;;;;;;;4975170;28;20041;-76
2022/04/15 11:36:50;;;;;;;2.45;2.10;;;;;;;;;;4975145;28;20105;-77
2022/04/15 11:39:18;;;;;;;2.33;2.13;;;;;;;;;;4974870;28;20393;-77
2022/04/15 11:41:49;;;;;;;2.38;2.15;;;;;;;;;;4974662;28;20035;-76
2022/04/15 11:44:16;;;;;;;2.05;1.95;;;;;;;;;;4975095;28;20453;-74
2022/04/15 11:46:42;;;;;;;2.53;2.38;;;;;;;;;;4975289;28;20069;-75
2022/04/15 11:49:11;;;;;;;2.78;1.70;;;;;;;;;;4974790;28;20035;-74
2022/04/15 11:51:36;;;;;;;2.40;1.75;;;;;;;;;;4974743;28;20023;-74
2022/04/15 11:54:02;;;;;;;2.42;2.22;;;;;;;;;;4958048;28;20027;-74
2022/04/15 11:56:29;;;;;;;2.63;2.45;;;;;;;;;;4957374;28;20034;-74
2022/04/15 11:58:57;;;;;;;2.60;2.40;;;;;;;;;;4973503;28;20109;-74
2022/04/15 12:01:26;;;;;;;2.10;1.90;;;;;;;;;;4956240;28;20015;-74
2022/04/15 12:03:52;;;;;;;2.67;2.47;;;;;;;;;;4975453;28;20034;-74
2022/04/15 12:06:17;;;;;;;2.88;2.67;;;;;;;;;;4977532;28;20254;-74
2022/04/15 12:08:42;;;;;;;2.80;2.60;;;;;;;;;;4977672;28;20125;-74
2022/04/15 12:11:09;;;;;;;9.85;6.60;;;;;;;;;;4959985;28;20019;-75
2022/04/15 12:13:34;;;;;;;13.02;10.30;;;;;;;;;;4959933;28;20034;-75
2022/04/15 12:15:59;;;;;;;6.38;5.85;;;;;;;;;;4977609;28;20019;-75
2022/04/15 12:18:25;;;;;;;2.15;1.95;;;;;;;;;;4978170;28;20074;-72
2022/04/15 12:20:50;;;;;;;3.80;2.70;;;;;;;;;;4977923;28;20033;-73
2022/04/15 12:23:16;;;;;;;1.00;1.00;;;;;;;;;;4978115;28;20038;-73
2022/04/15 12:31:47;;;;;;;0.80;0.80;;;;;;;;;;4978508;28;20041;-78
2022/04/15 12:34:12;;;;;;;0.93;0.93;;;;;;;;;;4978211;28;20031;-78
2022/04/15 12:37:04;;;;;;;4.20;3.90;;;;;;;;;;4978169;28;20114;-77
2022/04/15 12:39:30;;;;;;;1.58;1.48;;;;;;;;;;4952986;28;20454;-81
2022/04/15 12:42:25;;;;;;;2.05;1.50;;;;;;;;;;4978073;28;20053;-80
2022/04/15 12:44:54;;;;;;;1.25;1.25;;;;;;;;;;4960628;28;20035;-76
2022/04/15 12:47:19;;;;;;;1.15;1.10;;;;;;;;;;4978095;28;20037;-79
2022/04/15 12:49:44;;;;;;;1.00;1.00;;;;;;;;;;4977709;28;20488;-80
2022/04/15 12:52:11;;;;;;;1.10;1.00;;;;;;;;;;4960220;28;20081;-81
2022/04/15 12:54:56;;;;;;;1.02;1.02;;;;;;;;;;4978034;28;20031;-81
2022/04/15 12:57:26;;;;;;;1.02;1.02;;;;;;;;;;4977632;28;20034;-82
2022/04/15 12:59:52;;;;;;;0.93;0.93;;;;;;;;;;4960261;28;20038;-81
2022/04/15 13:02:17;;;;;;;1.00;0.90;;;;;;;;;;4977820;28;20031;-82
2022/04/15 13:04:49;;;;;;;0.80;0.80;;;;;;;;;;4977474;28;20073;-81
2022/04/15 13:07:14;;;;;;;1.00;1.00;;;;;;;;;;4977702;28;20037;-82
2022/04/15 13:09:40;;;;;;;1.17;1.00;;;;;;;;;;4960338;28;20105;-73
2022/04/15 13:12:06;;;;;;;1.00;1.00;;;;;;;;;;4977533;28;20117;-83
2022/04/15 13:14:32;;;;;;;1.20;1.08;;;;;;;;;;4976272;28;20023;-86
2022/04/15 13:16:58;;;;;;;1.45;1.35;;;;;;;;;;4976822;28;20077;-84
2022/04/15 13:19:23;;;;;;;1.00;1.00;;;;;;;;;;4977292;28;20026;-84
2022/04/15 13:21:59;;;;;;;0.82;0.82;;;;;;;;;;4977146;28;20340;-85
2022/04/15 13:24:24;;;;;;;1.13;1.10;;;;;;;;;;4977223;28;20027;-85
2022/04/15 13:26:52;;;;;;;3.30;3.00;;;;;;;;;;4977309;28;20019;-85
2022/04/15 13:29:18;;;;;;;1.50;1.40;;;;;;;;;;4959732;28;20034;-86
2022/04/15 13:31:43;;;;;;;1.73;1.63;;;;;;;;;;4976930;28;20019;-85
2022/04/15 13:34:08;;;;;;;1.77;1.67;;;;;;;;;;4976765;28;20576;-85
2022/04/15 13:36:34;;;;;;;1.35;1.25;;;;;;;;;;4958912;28;20390;-85
2022/04/15 13:39:04;;;;;;;1.40;1.30;;;;;;;;;;4976314;28;20037;-85
2022/04/15 13:41:30;;;;;;;;;;;;;;;;;;4959855;28;20494;-85
2022/04/15 13:43:56;;;;;;;1.80;1.70;;;;;;;;;;4977126;28;19917;-86
2022/04/15 13:46:22;;;;;;;1.40;1.30;;;;;;;;;;4958683;28;20038;-86
2022/04/15 13:48:51;;;;;;;1.80;1.48;;;;;;;;;;4975845;28;20026;-86
2022/04/15 13:51:16;;;;;;;1.30;1.20;;;;;;;;;;4975781;28;20429;-86
2022/04/15 13:56:35;;;;;;;1.85;1.20;;;;;;;;;;4974452;28;20019;-86
2022/04/15 13:59:01;;;;;;;1.35;1.20;;;;;;;;;;4941400;28;20027;-87
2022/04/15 14:01:33;;;;;;;3.08;1.80;;;;;;;;;;4974405;28;20022;-86
2022/04/15 14:04:01;;;;;;;1.83;1.23;;;;;;;;;;4956912;28;20023;-86
2022/04/15 14:06:26;;;;;;;3.67;2.78;;;;;;;;;;4974290;28;20022;-86
2022/04/15 14:08:52;;;;;;;5.50;4.97;;;;;;;;;;4974689;28;20378;-86
2022/04/15 14:11:17;;;;;;;4.05;3.85;;;;;;;;;;4974756;28;20445;-85
2022/04/15 14:13:43;;;;;;;3.90;3.70;;;;;;;;;;4976289;28;20074;-85
2022/04/15 14:16:12;;;;;;;3.95;3.65;;;;;;;;;;4959027;28;20474;-85
2022/04/15 14:18:37;;;;;;;2.60;2.40;;;;;;;;;;4958857;28;20446;-85
2022/04/15 14:21:03;;;;;;;2.63;2.25;;;;;;;;;;4958789;28;20050;-85
2022/04/15 14:23:28;;;;;;;2.75;2.55;;;;;;;;;;4976073;28;20038;-85
2022/04/15 14:25:54;;;;;;;5.50;4.10;;;;;;;;;;4975792;28;20026;-85
2022/04/15 14:28:19;;;;;;;3.70;3.35;;;;;;;;;;4959667;28;20042;-85
2022/04/15 14:30:44;;;;;;;5.27;4.23;;;;;;;;;;4976500;28;20046;-85
2022/04/15 14:33:10;;;;;;;4.45;3.10;;;;;;;;;;4975844;28;20266;-85
2022/04/15 14:35:35;;;;;;;5.18;4.65;;;;;;;;;;4958547;28;20030;-85
2022/04/15 14:38:00;;;;;;;6.90;4.78;;;;;;;;;;4975768;28;20117;-85
2022/04/15 14:40:26;;;;;;;9.30;5.45;;;;;;;;;;4958272;28;20121;-85